sensor_id;sensor_type;location;lat;lon;timestamp;pressure;altitude;pressure_sealevel;temperature;humidity
32761;BME280;19126;47.472;7.850;2023-04-15T00:02:14;95631.63;;;3.55;100.00
32761;BME280;19126;47.472;7.850;2023-04-15T00:04:43;95636.50;;;3.58;100.00
32761;BME280;19126;47.472;7.850;2023-04-15T00:07:11;95637.31;;;3.59;100.00
32761;BME280;19126;47.472;7.850;2023-04-15T00:09:38;95639.78;;;3.60;100.00
32761;BME280;19126;47.472;7.850;2023-04-15T00:12:06;95633.09;;;3.58;100.00
32761;BME280;19126;47.472;7.850;2023-04-15T00:14:35;95632.13;;;3.59;100.00
32761;BME280;19126;47.472;7.850;2023-04-15T00:17:03;95635.41;;;3.69;100.00
32761;BME280;19126;47.472;7.850;2023-04-15T00:19:31;95634.97;;;3.74;100.00
32761;BME280;19126;47.472;7.850;2023-04-15T00:21:59;95638.69;;;3.79;100.00
32761;BME280;19126;47.472;7.850;2023-04-15T00:24:26;95636.44;;;3.85;100.00
32761;BME280;19126;47.472;7.850;2023-04-15T00:26:54;95628.19;;;3.89;100.00
32761;BME280;19126;47.472;7.850;2023-04-15T00:29:21;95633.53;;;3.88;100.00
32761;BME280;19126;47.472;7.850;2023-04-15T00:31:50;95638.06;;;3.86;100.00
32761;BME280;19126;47.472;7.850;2023-04-15T00:34:17;95633.41;;;3.89;100.00
32761;BME280;19126;47.472;7.850;2023-04-15T00:36:45;95637.41;;;3.84;100.00
32761;BME280;19126;47.472;7.850;2023-04-15T00:39:12;95633.72;;;3.86;100.00
32761;BME280;19126;47.472;7.850;2023-04-15T00:41:41;95634.38;;;3.88;100.00
32761;BME280;19126;47.472;7.850;2023-04-15T00:44:08;95647.03;;;3.91;100.00
32761;BME280;19126;47.472;7.850;2023-04-15T00:46:38;95641.84;;;3.91;100.00
32761;BME280;19126;47.472;7.850;2023-04-15T00:49:06;95649.00;;;3.98;100.00
32761;BME280;19126;47.472;7.850;2023-04-15T00:51:34;95628.69;;;3.93;100.00
32761;BME280;19126;47.472;7.850;2023-04-15T00:54:03;95634.41;;;3.96;100.00
32761;BME280;19126;47.472;7.850;2023-04-15T00:56:32;95639.59;;;3.96;100.00
32761;BME280;19126;47.472;7.850;2023-04-15T00:59:01;95629.06;;;3.98;100.00
32761;BME280;19126;47.472;7.850;2023-04-15T01:03:57;95629.41;;;4.03;100.00
32761;BME280;19126;47.472;7.850;2023-04-15T01:06:25;95619.97;;;4.02;100.00
32761;BME280;19126;47.472;7.850;2023-04-15T01:08:53;95632.66;;;4.05;100.00
32761;BME280;19126;47.472;7.850;2023-04-15T01:11:22;95628.25;;;4.06;100.00
32761;BME280;19126;47.472;7.850;2023-04-15T01:13:50;95627.13;;;4.08;100.00
32761;BME280;19126;47.472;7.850;2023-04-15T01:16:18;95623.72;;;4.08;100.00
32761;BME280;19126;47.472;7.850;2023-04-15T01:18:46;95625.19;;;4.10;100.00
32761;BME280;19126;47.472;7.850;2023-04-15T01:21:14;95619.16;;;4.10;100.00
32761;BME280;19126;47.472;7.850;2023-04-15T01:23:44;95619.03;;;4.12;100.00
32761;BME280;19126;47.472;7.850;2023-04-15T01:26:15;95617.88;;;4.14;100.00
32761;BME280;19126;47.472;7.850;2023-04-15T01:28:42;95617.88;;;4.14;100.00
32761;BME280;19126;47.472;7.850;2023-04-15T01:31:12;95625.88;;;4.21;100.00
32761;BME280;19126;47.472;7.850;2023-04-15T01:33:41;95621.47;;;4.21;100.00
32761;BME280;19126;47.472;7.850;2023-04-15T01:36:09;95619.19;;;4.18;100.00
32761;BME280;19126;47.472;7.850;2023-04-15T01:38:39;95623.75;;;4.24;100.00
32761;BME280;19126;47.472;7.850;2023-04-15T01:41:07;95620.34;;;4.24;100.00
32761;BME280;19126;47.472;7.850;2023-04-15T01:43:36;95616.78;;;4.25;100.00
32761;BME280;19126;47.472;7.850;2023-04-15T01:46:03;95620.19;;;4.25;100.00
32761;BME280;19126;47.472;7.850;2023-04-15T01:48:31;95612.56;;;4.24;100.00
32761;BME280;19126;47.472;7.850;2023-04-15T01:50:59;95613.53;;;4.31;100.00
32761;BME280;19126;47.472;7.850;2023-04-15T01:53:26;95612.72;;;4.31;100.00
32761;BME280;19126;47.472;7.850;2023-04-15T01:55:54;95616.94;;;4.32;100.00
32761;BME280;19126;47.472;7.850;2023-04-15T01:58:21;95619.22;;;4.35;100.00
32761;BME280;19126;47.472;7.850;2023-04-15T02:00:50;95614.84;;;4.35;100.00
32761;BME280;19126;47.472;7.850;2023-04-15T02:03:18;95615.66;;;4.36;100.00
32761;BME280;19126;47.472;7.850;2023-04-15T02:05:46;95625.72;;;4.31;100.00
32761;BME280;19126;47.472;7.850;2023-04-15T02:08:13;95626.88;;;4.28;100.00
32761;BME280;19126;47.472;7.850;2023-04-15T02:10:40;95614.31;;;4.23;100.00
32761;BME280;19126;47.472;7.850;2023-04-15T02:13:07;95618.09;;;4.29;100.00
32761;BME280;19126;47.472;7.850;2023-04-15T02:15:35;95622.31;;;4.30;100.00
32761;BME280;19126;47.472;7.850;2023-04-15T02:18:05;95618.09;;;4.29;100.00
32761;BME280;19126;47.472;7.850;2023-04-15T02:20:32;95608.81;;;4.27;100.00
32761;BME280;19126;47.472;7.850;2023-04-15T02:23:01;95614.84;;;4.27;100.00
32761;BME280;19126;47.472;7.850;2023-04-15T02:25:32;95615.16;;;4.32;100.00
32761;BME280;19126;47.472;7.850;2023-04-15T02:27:59;95616.31;;;4.38;100.00
32761;BME280;19126;47.472;7.850;2023-04-15T02:30:26;95612.41;;;4.34;100.00
32761;BME280;19126;47.472;7.850;2023-04-15T02:32:54;95605.88;;;4.30;100.00
32761;BME280;19126;47.472;7.850;2023-04-15T02:35:22;95611.25;;;4.28;100.00
32761;BME280;19126;47.472;7.850;2023-04-15T02:37:52;95611.25;;;4.28;100.00
32761;BME280;19126;47.472;7.850;2023-04-15T02:40:20;95612.88;;;4.29;100.00
32761;BME280;19126;47.472;7.850;2023-04-15T02:42:47;95608.03;;;4.34;100.00
32761;BME280;19126;47.472;7.850;2023-04-15T02:45:15;95605.56;;;4.33;100.00
32761;BME280;19126;47.472;7.850;2023-04-15T02:47:44;95610.63;;;4.34;100.00
32761;BME280;19126;47.472;7.850;2023-04-15T02:50:13;95602.66;;;4.36;100.00
32761;BME280;19126;47.472;7.850;2023-04-15T02:52:42;95596.16;;;4.32;100.00
32761;BME280;19126;47.472;7.850;2023-04-15T02:55:12;95591.78;;;4.32;100.00
32761;BME280;19126;47.472;7.850;2023-04-15T02:57:39;95592.91;;;4.38;100.00
32761;BME280;19126;47.472;7.850;2023-04-15T03:00:08;95589.66;;;4.36;100.00
32761;BME280;19126;47.472;7.850;2023-04-15T03:02:37;95592.25;;;4.36;100.00
32761;BME280;19126;47.472;7.850;2023-04-15T03:05:06;95589.19;;;4.40;100.00
32761;BME280;19126;47.472;7.850;2023-04-15T03:07:34;95593.72;;;4.38;100.00
32761;BME280;19126;47.472;7.850;2023-04-15T03:10:03;95575.66;;;4.29;100.00
32761;BME280;19126;47.472;7.850;2023-04-15T03:12:30;95588.53;;;4.38;100.00
32761;BME280;19126;47.472;7.850;2023-04-15T03:14:57;95591.94;;;4.39;100.00
32761;BME280;19126;47.472;7.850;2023-04-15T03:17:26;95590.94;;;4.40;100.00
32761;BME280;19126;47.472;7.850;2023-04-15T03:19:55;95591.59;;;4.42;100.00
32761;BME280;19126;47.472;7.850;2023-04-15T03:22:23;95594.38;;;4.40;100.00
32761;BME280;19126;47.472;7.850;2023-04-15T03:24:51;95586.72;;;4.39;100.00
32761;BME280;19126;47.472;7.850;2023-04-15T03:27:20;95594.38;;;4.40;100.00
32761;BME280;19126;47.472;7.850;2023-04-15T03:29:47;95599.41;;;4.42;100.00
32761;BME280;19126;47.472;7.850;2023-04-15T03:32:14;95596.66;;;4.44;100.00
32761;BME280;19126;47.472;7.850;2023-04-15T03:34:42;95588.84;;;4.44;100.00
32761;BME280;19126;47.472;7.850;2023-04-15T03:37:09;95585.94;;;4.47;100.00
32761;BME280;19126;47.472;7.850;2023-04-15T03:39:36;95587.25;;;4.51;100.00
32761;BME280;19126;47.472;7.850;2023-04-15T03:42:04;95596.66;;;4.52;100.00
32761;BME280;19126;47.472;7.850;2023-04-15T03:44:32;95590.63;;;4.51;100.00
32761;BME280;19126;47.472;7.850;2023-04-15T03:47:00;95582.69;;;4.53;100.00
32761;BME280;19126;47.472;7.850;2023-04-15T03:49:27;95589.66;;;4.52;100.00
32761;BME280;19126;47.472;7.850;2023-04-15T03:51:54;95589.66;;;4.52;100.00
32761;BME280;19126;47.472;7.850;2023-04-15T03:54:22;95591.28;;;4.53;100.00
32761;BME280;19126;47.472;7.850;2023-04-15T03:56:49;95586.75;;;4.55;100.00
32761;BME280;19126;47.472;7.850;2023-04-15T03:59:17;95591.13;;;4.55;100.00
32761;BME280;19126;47.472;7.850;2023-04-15T04:01:46;95582.50;;;4.54;100.00
32761;BME280;19126;47.472;7.850;2023-04-15T04:04:13;95594.53;;;4.55;100.00
32761;BME280;19126;47.472;7.850;2023-04-15T04:06:40;95590.97;;;4.57;100.00
32761;BME280;19126;47.472;7.850;2023-04-15T04:09:08;95584.13;;;4.55;100.00
32761;BME280;19126;47.472;7.850;2023-04-15T04:11:35;95591.28;;;4.53;100.00
32761;BME280;19126;47.472;7.850;2023-04-15T04:14:03;95586.09;;;4.53;100.00
32761;BME280;19126;47.472;7.850;2023-04-15T04:16:30;95590.31;;;4.54;100.00
32761;BME280;19126;47.472;7.850;2023-04-15T04:18:59;95593.88;;;4.53;100.00
32761;BME280;19126;47.472;7.850;2023-04-15T04:21:27;95594.72;;;4.54;100.00
32761;BME280;19126;47.472;7.850;2023-04-15T04:23:54;95590.63;;;4.51;100.00
32761;BME280;19126;47.472;7.850;2023-04-15T04:26:21;95602.00;;;4.50;100.00
32761;BME280;19126;47.472;7.850;2023-04-15T04:28:49;95598.94;;;4.47;100.00
32761;BME280;19126;47.472;7.850;2023-04-15T04:31:17;95598.94;;;4.47;100.00
32761;BME280;19126;47.472;7.850;2023-04-15T04:33:44;95602.19;;;4.49;100.00
32761;BME280;19126;47.472;7.850;2023-04-15T04:36:13;95607.06;;;4.52;100.00
32761;BME280;19126;47.472;7.850;2023-04-15T04:38:41;95609.66;;;4.52;100.00
32761;BME280;19126;47.472;7.850;2023-04-15T04:41:11;95604.28;;;4.53;100.00
32761;BME280;19126;47.472;7.850;2023-04-15T04:43:38;95603.50;;;4.53;100.00
32761;BME280;19126;47.472;7.850;2023-04-15T04:46:08;95607.22;;;4.59;100.00
32761;BME280;19126;47.472;7.850;2023-04-15T04:48:37;95616.50;;;4.61;100.00
32761;BME280;19126;47.472;7.850;2023-04-15T04:51:05;95605.78;;;4.64;100.00
32761;BME280;19126;47.472;7.850;2023-04-15T04:53:34;95605.91;;;4.63;100.00
32761;BME280;19126;47.472;7.850;2023-04-15T04:56:03;95608.53;;;4.63;100.00
32761;BME280;19126;47.472;7.850;2023-04-15T04:58:30;95611.13;;;4.63;100.00
32761;BME280;19126;47.472;7.850;2023-04-15T05:00:57;95615.22;;;4.65;100.00
32761;BME280;19126;47.472;7.850;2023-04-15T05:03:25;95612.75;;;4.64;100.00
32761;BME280;19126;47.472;7.850;2023-04-15T05:05:52;95627.72;;;4.62;100.00
32761;BME280;19126;47.472;7.850;2023-04-15T05:08:20;95621.53;;;4.63;100.00
32761;BME280;19126;47.472;7.850;2023-04-15T05:10:51;95617.47;;;4.60;100.00
32761;BME280;19126;47.472;7.850;2023-04-15T05:13:19;95614.88;;;4.60;100.00
32761;BME280;19126;47.472;7.850;2023-04-15T05:15:46;95614.06;;;4.60;99.33
32761;BME280;19126;47.472;7.850;2023-04-15T05:18:13;95620.56;;;4.64;98.33
32761;BME280;19126;47.472;7.850;2023-04-15T05:20:41;95611.78;;;4.65;96.55
32761;BME280;19126;47.472;7.850;2023-04-15T05:23:08;95618.47;;;4.67;95.50
32761;BME280;19126;47.472;7.850;2023-04-15T05:25:36;95619.09;;;4.69;95.22
32761;BME280;19126;47.472;7.850;2023-04-15T05:28:05;95616.34;;;4.71;92.75
32761;BME280;19126;47.472;7.850;2023-04-15T05:30:35;95622.03;;;4.75;90.73
32761;BME280;19126;47.472;7.850;2023-04-15T05:33:03;95628.03;;;4.75;89.85
32761;BME280;19126;47.472;7.850;2023-04-15T05:35:31;95621.06;;;4.76;88.34
32761;BME280;19126;47.472;7.850;2023-04-15T05:38:06;95625.13;;;4.78;87.67
32761;BME280;19126;47.472;7.850;2023-04-15T05:40:33;95625.63;;;4.82;87.69
32761;BME280;19126;47.472;7.850;2023-04-15T05:43:01;95622.38;;;4.88;86.97
32761;BME280;19126;47.472;7.850;2023-04-15T05:45:29;95623.00;;;4.90;87.17
32761;BME280;19126;47.472;7.850;2023-04-15T05:47:57;95622.34;;;4.96;85.99
32761;BME280;19126;47.472;7.850;2023-04-15T05:50:24;95625.44;;;5.00;84.90
32761;BME280;19126;47.472;7.850;2023-04-15T05:52:54;95625.09;;;5.11;84.07
32761;BME280;19126;47.472;7.850;2023-04-15T05:55:22;95627.22;;;5.08;83.11
32761;BME280;19126;47.472;7.850;2023-04-15T05:57:49;95622.66;;;5.10;81.61
32761;BME280;19126;47.472;7.850;2023-04-15T06:00:17;95625.59;;;5.15;80.07
32761;BME280;19126;47.472;7.850;2023-04-15T06:02:49;95623.00;;;5.15;80.21
32761;BME280;19126;47.472;7.850;2023-04-15T06:05:16;95624.59;;;5.24;78.12
32761;BME280;19126;47.472;7.850;2023-04-15T06:07:44;95625.56;;;5.23;78.09
32761;BME280;19126;47.472;7.850;2023-04-15T06:10:11;95614.97;;;5.25;77.29
32761;BME280;19126;47.472;7.850;2023-04-15T06:12:39;95626.53;;;5.31;76.66
32761;BME280;19126;47.472;7.850;2023-04-15T06:15:07;95621.19;;;5.32;76.31
32761;BME280;19126;47.472;7.850;2023-04-15T06:17:36;95632.25;;;5.34;74.58
32761;BME280;19126;47.472;7.850;2023-04-15T06:20:06;95629.97;;;5.39;74.69
32761;BME280;19126;47.472;7.850;2023-04-15T06:22:33;95631.06;;;5.53;76.51
32761;BME280;19126;47.472;7.850;2023-04-15T06:25:01;95627.97;;;5.58;79.49
32761;BME280;19126;47.472;7.850;2023-04-15T06:27:28;95633.16;;;5.66;81.67
32761;BME280;19126;47.472;7.850;2023-04-15T06:29:57;95634.41;;;5.79;84.91
32761;BME280;19126;47.472;7.850;2023-04-15T06:32:25;95636.78;;;5.89;87.53
32761;BME280;19126;47.472;7.850;2023-04-15T06:34:52;95631.72;;;5.95;89.87
32761;BME280;19126;47.472;7.850;2023-04-15T06:37:24;95629.41;;;6.09;92.07
32761;BME280;19126;47.472;7.850;2023-04-15T06:39:51;95628.25;;;6.11;96.30
32761;BME280;19126;47.472;7.850;2023-04-15T06:42:18;95628.75;;;6.15;98.44
32761;BME280;19126;47.472;7.850;2023-04-15T06:44:46;95637.19;;;6.17;98.12
32761;BME280;19126;47.472;7.850;2023-04-15T06:47:14;95627.56;;;6.18;99.49
32761;BME280;19126;47.472;7.850;2023-04-15T06:49:41;95636.03;;;6.20;100.00
32761;BME280;19126;47.472;7.850;2023-04-15T06:52:10;95623.53;;;6.15;100.00
32761;BME280;19126;47.472;7.850;2023-04-15T06:54:39;95635.00;;;6.29;100.00
32761;BME280;19126;47.472;7.850;2023-04-15T06:59:43;95630.22;;;6.41;100.00
32761;BME280;19126;47.472;7.850;2023-04-15T07:02:13;95639.78;;;6.49;100.00
32761;BME280;19126;47.472;7.850;2023-04-15T07:04:41;95636.66;;;6.53;100.00
32761;BME280;19126;47.472;7.850;2023-04-15T07:07:08;95627.44;;;6.66;100.00
32761;BME280;19126;47.472;7.850;2023-04-15T07:09:40;95639.16;;;6.70;100.00
32761;BME280;19126;47.472;7.850;2023-04-15T07:12:07;95638.25;;;6.63;100.00
32761;BME280;19126;47.472;7.850;2023-04-15T07:14:35;95637.25;;;6.64;100.00
32761;BME280;19126;47.472;7.850;2023-04-15T07:17:02;95632.97;;;6.71;100.00
32761;BME280;19126;47.472;7.850;2023-04-15T07:19:29;95632.44;;;6.76;100.00
32761;BME280;19126;47.472;7.850;2023-04-15T07:24:32;95630.78;;;6.83;100.00
32761;BME280;19126;47.472;7.850;2023-04-15T07:27:01;95642.75;;;6.92;100.00
32761;BME280;19126;47.472;7.850;2023-04-15T07:29:29;95640.94;;;6.93;100.00
32761;BME280;19126;47.472;7.850;2023-04-15T07:34:32;95644.25;;;7.10;100.00
32761;BME280;19126;47.472;7.850;2023-04-15T07:37:00;95644.78;;;7.05;100.00
32761;BME280;19126;47.472;7.850;2023-04-15T07:39:28;95629.66;;;7.00;100.00
32761;BME280;19126;47.472;7.850;2023-04-15T07:41:56;95656.78;;;7.14;100.00
32761;BME280;19126;47.472;7.850;2023-04-15T07:44:26;95648.13;;;7.14;100.00
32761;BME280;19126;47.472;7.850;2023-04-15T07:46:55;95648.50;;;7.11;100.00
32761;BME280;19126;47.472;7.850;2023-04-15T07:49:24;95654.69;;;7.10;100.00
32761;BME280;19126;47.472;7.850;2023-04-15T07:51:54;95644.25;;;7.10;100.00
32761;BME280;19126;47.472;7.850;2023-04-15T07:54:22;95645.41;;;7.07;100.00
32761;BME280;19126;47.472;7.850;2023-04-15T07:56:50;95656.97;;;7.13;100.00
32761;BME280;19126;47.472;7.850;2023-04-15T07:59:17;95659.38;;;7.14;100.00
32761;BME280;19126;47.472;7.850;2023-04-15T08:16:28;95652.44;;;7.07;100.00
32761;BME280;19126;47.472;7.850;2023-04-15T08:18:57;95661.00;;;7.15;100.00
32761;BME280;19126;47.472;7.850;2023-04-15T08:24:03;95676.59;;;7.24;100.00
32761;BME280;19126;47.472;7.850;2023-04-15T08:26:32;95677.22;;;7.11;100.00
32761;BME280;19126;47.472;7.850;2023-04-15T08:28:59;95669.72;;;7.08;100.00
32761;BME280;19126;47.472;7.850;2023-04-15T08:31:29;95683.88;;;7.13;100.00
32761;BME280;19126;47.472;7.850;2023-04-15T08:33:56;95687.75;;;7.17;100.00
32761;BME280;19126;47.472;7.850;2023-04-15T08:36:24;95681.53;;;7.18;100.00
32761;BME280;19126;47.472;7.850;2023-04-15T08:38:52;95690.56;;;7.16;100.00
32761;BME280;19126;47.472;7.850;2023-04-15T08:41:22;95689.44;;;7.10;100.00
32761;BME280;19126;47.472;7.850;2023-04-15T08:43:53;95691.78;;;7.05;100.00
32761;BME280;19126;47.472;7.850;2023-04-15T08:46:23;95688.53;;;7.03;100.00
32761;BME280;19126;47.472;7.850;2023-04-15T08:48:52;95690.50;;;7.01;100.00
32761;BME280;19126;47.472;7.850;2023-04-15T08:51:21;95693.66;;;6.96;100.00
32761;BME280;19126;47.472;7.850;2023-04-15T08:53:49;95698.53;;;6.99;100.00
32761;BME280;19126;47.472;7.850;2023-04-15T08:56:18;95693.66;;;6.96;100.00
32761;BME280;19126;47.472;7.850;2023-04-15T08:58:53;95694.94;;;7.00;100.00
32761;BME280;19126;47.472;7.850;2023-04-15T09:01:20;95687.19;;;7.07;100.00
32761;BME280;19126;47.472;7.850;2023-04-15T09:03:50;95699.38;;;7.15;100.00
32761;BME280;19126;47.472;7.850;2023-04-15T09:06:20;95693.28;;;7.23;100.00
32761;BME280;19126;47.472;7.850;2023-04-15T09:08:47;95697.91;;;7.36;100.00
32761;BME280;19126;47.472;7.850;2023-04-15T09:11:15;95704.78;;;7.52;100.00
32761;BME280;19126;47.472;7.850;2023-04-15T09:13:44;95699.81;;;7.57;100.00
32761;BME280;19126;47.472;7.850;2023-04-15T09:16:13;95702.91;;;7.60;100.00
32761;BME280;19126;47.472;7.850;2023-04-15T09:18:40;95711.47;;;7.69;100.00
32761;BME280;19126;47.472;7.850;2023-04-15T09:21:11;95711.53;;;7.61;100.00
32761;BME280;19126;47.472;7.850;2023-04-15T09:23:41;95698.41;;;7.54;100.00
32761;BME280;19126;47.472;7.850;2023-04-15T09:26:32;95707.94;;;7.62;100.00
32761;BME280;19126;47.472;7.850;2023-04-15T09:29:12;95710.13;;;7.73;100.00
32761;BME280;19126;47.472;7.850;2023-04-15T09:31:40;95714.63;;;7.80;100.00
32761;BME280;19126;47.472;7.850;2023-04-15T09:34:08;95719.78;;;7.88;100.00
32761;BME280;19126;47.472;7.850;2023-04-15T09:36:55;95715.41;;;8.03;100.00
32761;BME280;19126;47.472;7.850;2023-04-15T09:39:22;95710.31;;;8.02;100.00
32761;BME280;19126;47.472;7.850;2023-04-15T09:42:06;95724.22;;;8.17;100.00
32761;BME280;19126;47.472;7.850;2023-04-15T09:44:33;95720.16;;;8.15;100.00
32761;BME280;19126;47.472;7.850;2023-04-15T09:47:01;95726.84;;;8.17;100.00
32761;BME280;19126;47.472;7.850;2023-04-15T09:49:29;95722.44;;;8.18;100.00
32761;BME280;19126;47.472;7.850;2023-04-15T09:52:02;95730.06;;;8.19;100.00
32761;BME280;19126;47.472;7.850;2023-04-15T09:54:35;95734.41;;;8.27;100.00
32761;BME280;19126;47.472;7.850;2023-04-15T09:57:06;95736.41;;;8.25;100.00
32761;BME280;19126;47.472;7.850;2023-04-15T09:59:35;95749.22;;;8.20;100.00
32761;BME280;19126;47.472;7.850;2023-04-15T10:02:06;95738.38;;;8.08;100.00
32761;BME280;19126;47.472;7.850;2023-04-15T10:04:38;95732.50;;;8.06;100.00
32761;BME280;19126;47.472;7.850;2023-04-15T10:07:08;95750.66;;;8.07;100.00
32761;BME280;19126;47.472;7.850;2023-04-15T10:09:36;95750.19;;;8.04;100.00
32761;BME280;19126;47.472;7.850;2023-04-15T10:12:04;95749.41;;;8.03;100.00
32761;BME280;19126;47.472;7.850;2023-04-15T10:14:34;95755.34;;;8.12;100.00
32761;BME280;19126;47.472;7.850;2023-04-15T10:17:05;95758.16;;;8.11;100.00
32761;BME280;19126;47.472;7.850;2023-04-15T10:19:36;95768.63;;;8.11;100.00
32761;BME280;19126;47.472;7.850;2023-04-15T10:22:03;95755.63;;;8.02;100.00
32761;BME280;19126;47.472;7.850;2023-04-15T10:24:33;95774.63;;;8.11;100.00
32761;BME280;19126;47.472;7.850;2023-04-15T10:27:02;95759.78;;;8.12;100.00
32761;BME280;19126;47.472;7.850;2023-04-15T10:29:30;95764.00;;;8.28;100.00
32761;BME280;19126;47.472;7.850;2023-04-15T10:31:58;95775.38;;;8.35;100.00
32761;BME280;19126;47.472;7.850;2023-04-15T10:34:27;95778.28;;;8.25;100.00
32761;BME280;19126;47.472;7.850;2023-04-15T10:36:56;95778.34;;;8.47;100.00
32761;BME280;19126;47.472;7.850;2023-04-15T10:39:42;95778.03;;;8.50;100.00
32761;BME280;19126;47.472;7.850;2023-04-15T10:42:11;95781.44;;;8.65;100.00
32761;BME280;19126;47.472;7.850;2023-04-15T10:44:42;95781.78;;;8.62;100.00
32761;BME280;19126;47.472;7.850;2023-04-15T10:47:12;95785.19;;;8.78;100.00
32761;BME280;19126;47.472;7.850;2023-04-15T10:49:48;95780.81;;;8.63;100.00
32761;BME280;19126;47.472;7.850;2023-04-15T10:52:17;95793.84;;;8.48;100.00
32761;BME280;19126;47.472;7.850;2023-04-15T10:54:49;95796.31;;;8.35;100.00
32761;BME280;19126;47.472;7.850;2023-04-15T10:57:34;95801.81;;;8.25;100.00
32761;BME280;19126;47.472;7.850;2023-04-15T11:00:12;95804.97;;;8.20;100.00
32761;BME280;19126;47.472;7.850;2023-04-15T11:02:46;95808.28;;;8.14;100.00
32761;BME280;19126;47.472;7.850;2023-04-15T11:05:14;95808.91;;;8.16;100.00
32761;BME280;19126;47.472;7.850;2023-04-15T11:07:51;95803.59;;;8.10;100.00
32761;BME280;19126;47.472;7.850;2023-04-15T11:10:52;95807.09;;;8.02;100.00
32761;BME280;19126;47.472;7.850;2023-04-15T11:13:28;95814.88;;;8.10;100.00
32761;BME280;19126;47.472;7.850;2023-04-15T11:15:59;95817.41;;;8.18;100.00
32761;BME280;19126;47.472;7.850;2023-04-15T11:18:30;95817.25;;;8.20;100.00
32761;BME280;19126;47.472;7.850;2023-04-15T11:21:03;95814.78;;;8.18;100.00
32761;BME280;19126;47.472;7.850;2023-04-15T11:23:34;95820.28;;;8.24;100.00
32761;BME280;19126;47.472;7.850;2023-04-15T11:26:05;95828.78;;;8.26;100.00
32761;BME280;19126;47.472;7.850;2023-04-15T11:28:35;95823.38;;;8.27;100.00
32761;BME280;19126;47.472;7.850;2023-04-15T11:31:08;95832.13;;;8.34;100.00
32761;BME280;19126;47.472;7.850;2023-04-15T11:33:37;95822.03;;;8.31;100.00
32761;BME280;19126;47.472;7.850;2023-04-15T11:36:06;95843.13;;;8.30;100.00
32761;BME280;19126;47.472;7.850;2023-04-15T11:38:34;95837.91;;;8.30;100.00
32761;BME280;19126;47.472;7.850;2023-04-15T11:41:04;95842.69;;;8.41;100.00
32761;BME280;19126;47.472;7.850;2023-04-15T11:43:31;95829.59;;;8.41;100.00
32761;BME280;19126;47.472;7.850;2023-04-15T11:46:01;95840.97;;;8.48;100.00
32761;BME280;19126;47.472;7.850;2023-04-15T11:48:31;95835.25;;;8.53;100.00
32761;BME280;19126;47.472;7.850;2023-04-15T11:51:01;95841.34;;;8.75;100.00
32761;BME280;19126;47.472;7.850;2023-04-15T11:53:40;95837.91;;;8.90;100.00
32761;BME280;19126;47.472;7.850;2023-04-15T11:56:10;95845.88;;;8.97;100.00
32761;BME280;19126;47.472;7.850;2023-04-15T11:58:42;95846.66;;;9.12;100.00
32761;BME280;19126;47.472;7.850;2023-04-15T12:01:12;95841.28;;;9.20;100.00
32761;BME280;19126;47.472;7.850;2023-04-15T12:03:42;95848.78;;;9.23;100.00
32761;BME280;19126;47.472;7.850;2023-04-15T12:06:17;95855.69;;;9.46;100.00
32761;BME280;19126;47.472;7.850;2023-04-15T12:11:46;95857.88;;;9.86;100.00
32761;BME280;19126;47.472;7.850;2023-04-15T12:14:24;95858.53;;;9.95;100.00
32761;BME280;19126;47.472;7.850;2023-04-15T12:16:57;95865.50;;;10.03;100.00
32761;BME280;19126;47.472;7.850;2023-04-15T12:19:26;95868.91;;;10.03;100.00
32761;BME280;19126;47.472;7.850;2023-04-15T12:21:59;95865.63;;;9.94;100.00
32761;BME280;19126;47.472;7.850;2023-04-15T12:24:28;95883.72;;;10.11;100.00
32761;BME280;19126;47.472;7.850;2023-04-15T12:27:02;95874.13;;;10.25;100.00
32761;BME280;19126;47.472;7.850;2023-04-15T12:29:29;95878.63;;;10.31;100.00
32761;BME280;19126;47.472;7.850;2023-04-15T12:32:02;95886.72;;;10.36;100.00
32761;BME280;19126;47.472;7.850;2023-04-15T12:34:32;95886.69;;;10.30;100.00
32761;BME280;19126;47.472;7.850;2023-04-15T12:37:03;95895.75;;;10.27;100.00
32761;BME280;19126;47.472;7.850;2023-04-15T12:39:34;95898.97;;;10.01;100.00
32761;BME280;19126;47.472;7.850;2023-04-15T12:42:04;95902.41;;;10.01;100.00
32761;BME280;19126;47.472;7.850;2023-04-15T12:44:32;95904.84;;;10.03;100.00
32761;BME280;19126;47.472;7.850;2023-04-15T12:47:00;95910.09;;;9.81;100.00
32761;BME280;19126;47.472;7.850;2023-04-15T12:49:28;95923.22;;;9.81;100.00
32761;BME280;19126;47.472;7.850;2023-04-15T12:51:57;95925.88;;;9.88;100.00
32761;BME280;19126;47.472;7.850;2023-04-15T12:54:25;95928.09;;;9.84;97.12
32761;BME280;19126;47.472;7.850;2023-04-15T12:56:53;95933.84;;;9.94;100.00
32761;BME280;19126;47.472;7.850;2023-04-15T12:59:23;95932.75;;;10.10;100.00
32761;BME280;19126;47.472;7.850;2023-04-15T13:01:51;95930.22;;;10.17;100.00
32761;BME280;19126;47.472;7.850;2023-04-15T13:04:19;95931.13;;;10.31;100.00
32761;BME280;19126;47.472;7.850;2023-04-15T13:06:47;95941.50;;;10.39;98.25
32761;BME280;19126;47.472;7.850;2023-04-15T13:09:14;95945.06;;;10.53;100.00
32761;BME280;19126;47.472;7.850;2023-04-15T13:11:41;95943.47;;;10.59;100.00
32761;BME280;19126;47.472;7.850;2023-04-15T13:14:12;95947.16;;;10.65;98.82
32761;BME280;19126;47.472;7.850;2023-04-15T13:16:41;95949.47;;;10.75;100.00
32761;BME280;19126;47.472;7.850;2023-04-15T13:19:08;95954.13;;;10.79;97.92
32761;BME280;19126;47.472;7.850;2023-04-15T13:21:36;95956.59;;;10.81;95.06
32761;BME280;19126;47.472;7.850;2023-04-15T13:24:06;95957.34;;;10.75;92.07
32761;BME280;19126;47.472;7.850;2023-04-15T13:26:34;95961.94;;;10.66;93.73
32761;BME280;19126;47.472;7.850;2023-04-15T13:29:02;95960.53;;;10.70;94.96
32761;BME280;19126;47.472;7.850;2023-04-15T13:31:30;95969.03;;;10.72;95.84
32761;BME280;19126;47.472;7.850;2023-04-15T13:33:58;95964.41;;;10.74;96.39
32761;BME280;19126;47.472;7.850;2023-04-15T13:36:26;95978.22;;;10.83;99.42
32761;BME280;19126;47.472;7.850;2023-04-15T13:38:53;95977.63;;;10.88;100.00
32761;BME280;19126;47.472;7.850;2023-04-15T13:41:21;95982.94;;;10.94;100.00